Time;durP1;ratioP1;P1;durP2;ratioP2;P2;SDS_P1;SDS_P2;PMS_P1;PMS_P2;Temp;Humidity;BMP_temperature;BMP_pressure;BME280_temperature;BME280_humidity;BME280_pressure;Samples;Min_cycle;Max_cycle;Signal;HPM_P1;HPM_P2
2023/09/08 00:02:26;;;;;;;79.63;33.83;;;19.80;93.70;;;;;;4980841;28;20982;-80
2023/09/08 00:04:52;;;;;;;80.40;34.40;;;19.70;95.00;;;;;;4980600;28;20407;-80
2023/09/08 00:07:18;;;;;;;84.33;40.50;;;19.70;96.60;;;;;;4980276;28;20411;-80
2023/09/08 00:09:43;;;;;;;84.37;39.60;;;19.70;97.20;;;;;;4979928;28;20431;-80
2023/09/08 00:12:09;;;;;;;82.37;35.73;;;19.70;97.10;;;;;;4979894;28;20572;-80
2023/09/08 00:14:35;;;;;;;82.67;38.33;;;19.60;99.30;;;;;;4962978;28;20176;-80
2023/09/08 00:17:00;;;;;;;82.50;37.63;;;19.60;98.00;;;;;;4980019;28;20172;-80
2023/09/08 00:19:26;;;;;;;82.40;36.77;;;19.60;98.90;;;;;;4979674;28;20200;-80
2023/09/08 00:21:51;;;;;;;84.87;43.57;;;19.60;98.60;;;;;;4979646;28;20240;-80
2023/09/08 00:24:19;;;;;;;83.47;39.17;;;19.60;98.30;;;;;;4979760;28;20164;-80
2023/09/08 00:26:45;;;;;;;88.23;41.37;;;19.60;98.00;;;;;;4979546;28;20175;-80
2023/09/08 00:29:11;;;;;;;82.33;42.03;;;19.60;98.90;;;;;;4961772;28;20934;-80
2023/09/08 00:31:36;;;;;;;85.60;40.77;;;19.60;99.20;;;;;;4978706;28;20262;-80
2023/09/08 00:34:02;;;;;;;83.17;40.37;;;19.60;98.20;;;;;;4961250;28;20172;-80
2023/09/08 00:36:28;;;;;;;85.83;37.50;;;19.60;97.20;;;;;;4979091;28;20199;-80
2023/09/08 00:38:53;;;;;;;83.77;41.27;;;19.60;98.30;;;;;;4978687;28;20250;-80
2023/09/08 00:41:19;;;;;;;84.57;42.03;;;19.50;97.40;;;;;;4978913;28;20187;-80
2023/09/08 00:43:45;;;;;;;85.20;44.53;;;19.50;97.20;;;;;;4978331;28;20302;-80
2023/09/08 00:46:11;;;;;;;88.87;50.07;;;19.40;98.90;;;;;;4978389;28;20175;-80
2023/09/08 00:48:41;;;;;;;90.63;54.77;;;19.40;99.90;;;;;;5056316;23;20293;-82
2023/09/08 00:51:09;;;;;;;96.30;57.33;;;19.30;99.90;;;;;;5066643;23;20478;-82
2023/09/08 00:53:35;;;;;;;88.07;53.10;;;19.40;99.90;;;;;;4979577;28;20426;-80
2023/09/08 00:56:02;;;;;;;92.47;52.63;;;19.40;99.90;;;;;;4997308;28;20394;-80
2023/09/08 00:58:29;;;;;;;87.50;45.60;;;19.40;99.40;;;;;;4997171;28;20529;-80
2023/09/08 01:00:57;;;;;;;87.37;43.50;;;19.40;97.90;;;;;;4984614;28;20485;-80
2023/09/08 01:03:24;;;;;;;89.77;48.33;;;19.40;96.80;;;;;;4960915;28;20411;-80
2023/09/08 01:05:50;;;;;;;87.77;42.87;;;19.40;97.50;;;;;;4960632;28;20407;-80
2023/09/08 01:08:17;;;;;;;87.93;45.67;;;19.40;95.40;;;;;;4977892;28;20407;-80
2023/09/08 01:10:45;;;;;;;84.57;41.37;;;19.40;95.70;;;;;;4977629;28;20510;-80
2023/09/08 01:13:11;;;;;;;87.27;39.40;;;19.40;94.90;;;;;;4979145;28;20773;-80
2023/09/08 01:15:37;;;;;;;85.20;41.07;;;19.40;93.90;;;;;;4977931;28;20408;-80
2023/09/08 01:18:03;;;;;;;86.77;42.23;;;19.40;92.70;;;;;;4978142;28;20268;-80
2023/09/08 01:20:49;;;;;;;85.43;41.57;;;19.40;93.70;;;;;;4977865;28;20187;-81
2023/09/08 01:23:28;;;;;;;87.83;45.70;;;19.40;93.60;;;;;;4978300;28;20380;-80
2023/09/08 01:26:17;;;;;;;84.87;44.53;;;19.40;94.40;;;;;;4978307;28;20388;-80
2023/09/08 01:28:45;;;;;;;86.30;45.63;;;19.30;94.50;;;;;;4978305;28;20392;-80
2023/09/08 01:31:11;;;;;;;85.90;44.50;;;19.30;94.10;;;;;;4978095;28;20431;-80
2023/09/08 01:33:37;;;;;;;86.73;44.53;;;19.30;94.70;;;;;;4978047;28;20411;-80
2023/09/08 01:36:03;;;;;;;87.83;51.40;;;19.20;94.40;;;;;;4977807;28;20769;-80
2023/09/08 01:38:28;;;;;;;84.27;43.40;;;19.20;95.30;;;;;;4978211;28;20439;-80
2023/09/08 01:40:54;;;;;;;88.20;52.73;;;19.20;95.00;;;;;;4978188;28;20431;-80
2023/09/08 01:43:20;;;;;;;89.03;48.03;;;19.20;96.20;;;;;;4978158;28;20250;-80
2023/09/08 01:45:45;;;;;;;85.77;41.17;;;19.20;95.70;;;;;;4978473;28;20228;-80
2023/09/08 01:48:11;;;;;;;92.43;50.07;;;19.20;94.70;;;;;;4977817;28;20640;-80
2023/09/08 01:50:37;;;;;;;85.57;45.60;;;19.10;97.30;;;;;;4977485;28;20595;-80
2023/09/08 01:53:02;;;;;;;92.47;51.07;;;19.10;96.30;;;;;;4977627;28;20183;-80
2023/09/08 01:55:31;;;;;;;88.87;50.50;;;19.00;98.50;;;;;;4977474;28;20191;-80
2023/09/08 01:57:57;;;;;;;89.23;54.27;;;19.00;98.30;;;;;;4977612;28;20188;-80
2023/09/08 02:00:22;;;;;;;91.03;55.73;;;19.00;99.90;;;;;;4977410;28;20518;-80
2023/09/08 02:02:48;;;;;;;95.30;63.07;;;19.00;99.90;;;;;;4977166;28;20658;-80
2023/09/08 02:05:14;;;;;;;91.60;64.03;;;18.90;99.90;;;;;;4977887;28;20168;-80
2023/09/08 02:07:40;;;;;;;93.40;62.17;;;18.80;99.90;;;;;;4976958;28;20168;-80
2023/09/08 02:10:06;;;;;;;88.63;54.63;;;18.80;99.90;;;;;;4977041;28;20482;-80
2023/09/08 02:12:32;;;;;;;92.37;64.77;;;18.90;99.90;;;;;;4976618;28;20542;-80
2023/09/08 02:14:57;;;;;;;92.40;62.97;;;18.80;99.90;;;;;;4976868;28;20435;-80
2023/09/08 02:17:23;;;;;;;92.40;59.67;;;18.80;99.90;;;;;;4977362;28;20180;-80
2023/09/08 02:19:49;;;;;;;99.87;70.60;;;18.80;99.90;;;;;;4977023;28;20192;-80
2023/09/08 02:22:14;;;;;;;90.97;54.53;;;18.70;99.90;;;;;;4976417;28;20602;-80
2023/09/08 02:24:40;;;;;;;95.27;60.17;;;18.60;99.90;;;;;;4976975;28;20183;-80
2023/09/08 02:27:05;;;;;;;99.63;63.33;;;18.60;99.90;;;;;;4977717;28;20168;-80
2023/09/08 02:29:31;;;;;;;97.37;60.80;;;18.50;99.90;;;;;;4980450;28;20246;-80
2023/09/08 02:31:57;;;;;;;95.93;60.70;;;18.40;99.90;;;;;;4980380;28;20252;-80
2023/09/08 02:34:23;;;;;;;95.43;59.13;;;18.30;99.90;;;;;;4981180;28;20447;-80
2023/09/08 02:36:50;;;;;;;92.17;53.00;;;18.30;99.90;;;;;;4980808;28;20164;-80
2023/09/08 02:39:16;;;;;;;91.27;44.17;;;18.30;99.90;;;;;;4963087;28;20201;-80
2023/09/08 02:41:42;;;;;;;90.57;48.53;;;18.20;99.90;;;;;;4963082;28;20509;-80
2023/09/08 02:44:08;;;;;;;88.40;37.03;;;18.30;99.90;;;;;;4963445;28;20183;-80
2023/09/08 02:46:33;;;;;;;85.13;32.73;;;18.20;99.90;;;;;;4963590;28;20175;-80
2023/09/08 02:49:02;;;;;;;80.97;30.53;;;18.20;99.90;;;;;;4980974;28;20411;-80
2023/09/08 02:51:28;;;;;;;87.63;31.43;;;18.20;99.90;;;;;;4980848;28;20199;-80
2023/09/08 02:53:53;;;;;;;86.20;27.77;;;18.20;99.90;;;;;;4980940;28;20403;-80
2023/09/08 02:56:19;;;;;;;83.80;31.90;;;18.20;99.90;;;;;;4980805;28;20172;-80
2023/09/08 02:58:44;;;;;;;83.13;31.93;;;18.30;99.90;;;;;;4980455;28;20196;-80
2023/09/08 03:01:20;;;;;;;78.10;21.67;;;18.20;99.90;;;;;;4980400;28;20242;-80
2023/09/08 03:03:47;;;;;;;82.90;26.70;;;18.20;99.90;;;;;;4980298;28;20299;-80
2023/09/08 03:06:15;;;;;;;84.73;29.43;;;18.30;99.90;;;;;;4980906;28;20407;-80
2023/09/08 03:08:41;;;;;;;82.50;31.47;;;18.20;99.90;;;;;;4980171;28;20407;-80
2023/09/08 03:11:08;;;;;;;88.50;32.43;;;18.20;99.90;;;;;;4963067;28;20431;-80
2023/09/08 03:13:34;;;;;;;95.97;38.47;;;18.30;99.90;;;;;;4981170;28;20407;-80
2023/09/08 03:16:05;;;;;;;85.27;34.23;;;18.30;99.90;;;;;;4980154;28;20938;-80
2023/09/08 03:18:32;;;;;;;92.00;40.60;;;18.20;99.90;;;;;;4980110;28;20439;-80
2023/09/08 03:20:59;;;;;;;91.93;37.17;;;18.20;99.90;;;;;;4962734;28;20903;-80
2023/09/08 03:23:24;;;;;;;80.97;27.20;;;18.10;99.90;;;;;;4980208;28;20450;-80
2023/09/08 03:25:50;;;;;;;83.93;25.63;;;18.00;99.90;;;;;;4962806;28;20931;-80
2023/09/08 03:28:16;;;;;;;84.10;30.27;;;17.90;99.90;;;;;;4979883;28;20183;-80
2023/09/08 03:30:41;;;;;;;82.43;29.73;;;17.80;99.90;;;;;;4979667;28;20184;-80
2023/09/08 03:33:07;;;;;;;82.23;26.60;;;17.80;99.90;;;;;;4979839;28;20175;-80
2023/09/08 03:35:33;;;;;;;82.77;27.70;;;17.70;99.90;;;;;;4979605;28;20172;-80
2023/09/08 03:37:58;;;;;;;80.23;22.80;;;17.70;99.90;;;;;;4979940;28;20237;-80
2023/09/08 03:40:24;;;;;;;79.50;23.30;;;17.70;99.90;;;;;;4978759;28;20268;-80
2023/09/08 03:42:50;;;;;;;81.20;24.97;;;17.60;99.90;;;;;;4979661;28;20187;-80
2023/09/08 03:45:15;;;;;;;80.17;25.20;;;17.60;99.90;;;;;;4979439;28;20234;-80
2023/09/08 03:47:41;;;;;;;84.50;26.20;;;17.70;99.90;;;;;;4979856;28;20254;-80
2023/09/08 03:50:07;;;;;;;79.93;22.53;;;17.70;99.90;;;;;;4979249;28;20610;-80
2023/09/08 03:52:33;;;;;;;80.30;25.20;;;17.70;99.90;;;;;;4961834;28;20203;-80
2023/09/08 03:54:59;;;;;;;82.40;23.67;;;17.70;99.90;;;;;;4980100;28;20407;-80
2023/09/08 03:57:24;;;;;;;83.73;28.37;;;17.60;99.90;;;;;;4978903;28;20696;-80
2023/09/08 03:59:50;;;;;;;82.10;22.30;;;17.60;99.90;;;;;;4978913;28;20183;-80
2023/09/08 04:02:16;;;;;;;81.00;25.03;;;17.60;99.90;;;;;;4979232;28;20168;-80
2023/09/08 04:07:18;;;;;;;83.83;26.47;;;17.50;99.90;;;;;;5320689;23;20221;-80
2023/09/08 04:09:43;;;;;;;84.13;26.87;;;17.50;99.90;;;;;;5015172;28;20441;-80
2023/09/08 04:12:10;;;;;;;86.70;28.43;;;17.50;99.90;;;;;;4998122;28;20167;-80
2023/09/08 04:14:36;;;;;;;86.63;36.53;;;17.50;99.90;;;;;;4980890;28;20171;-80
2023/09/08 04:17:02;;;;;;;88.10;33.97;;;17.50;99.90;;;;;;4998170;28;20449;-80
2023/09/08 04:19:28;;;;;;;85.33;31.60;;;17.60;99.90;;;;;;4998198;28;20191;-80
2023/09/08 04:21:53;;;;;;;87.27;33.13;;;17.60;99.90;;;;;;4997971;28;20170;-80
2023/09/08 04:24:19;;;;;;;85.87;33.37;;;17.60;99.90;;;;;;4998250;28;20167;-80
2023/09/08 04:26:45;;;;;;;85.03;32.23;;;17.60;99.90;;;;;;4997840;28;20532;-80
2023/09/08 04:29:11;;;;;;;83.13;26.00;;;17.70;99.90;;;;;;4998422;28;20398;-80
2023/09/08 04:31:37;;;;;;;84.20;27.30;;;17.70;99.90;;;;;;4997500;28;20656;-80
2023/09/08 04:34:02;;;;;;;79.27;23.40;;;17.70;99.90;;;;;;4997810;28;20210;-80
2023/09/08 04:36:30;;;;;;;80.57;26.10;;;17.60;99.90;;;;;;4997808;28;20185;-80
2023/09/08 04:38:56;;;;;;;79.60;24.20;;;17.60;99.90;;;;;;4979906;28;20191;-80
2023/09/08 04:41:22;;;;;;;79.07;26.27;;;17.50;99.90;;;;;;4997913;28;20775;-80
2023/09/08 04:43:47;;;;;;;81.10;24.33;;;17.60;99.90;;;;;;4998372;28;20401;-80
2023/09/08 04:46:15;;;;;;;81.50;23.03;;;17.60;99.90;;;;;;4997505;28;20163;-80
2023/09/08 04:48:42;;;;;;;81.97;23.50;;;17.60;99.90;;;;;;4997889;28;20209;-80
2023/09/08 04:51:07;;;;;;;82.97;21.20;;;17.60;99.90;;;;;;4997769;28;20454;-80
2023/09/08 04:53:40;;;;;;;83.23;24.33;;;17.60;99.90;;;;;;4996971;28;20406;-80
2023/09/08 04:56:06;;;;;;;81.67;24.37;;;17.60;99.90;;;;;;4997777;28;20155;-80
2023/09/08 04:58:31;;;;;;;80.83;22.03;;;17.60;99.90;;;;;;4997710;28;20779;-80
2023/09/08 05:00:57;;;;;;;80.20;24.47;;;17.60;99.90;;;;;;4996975;28;20659;-80
2023/09/08 05:03:23;;;;;;;77.63;20.50;;;17.60;99.90;;;;;;4997412;28;20174;-80
2023/09/08 05:05:48;;;;;;;80.43;22.03;;;17.60;99.90;;;;;;4979880;28;20182;-80
2023/09/08 05:08:14;;;;;;;78.70;20.57;;;17.70;99.90;;;;;;4997797;28;20183;-80
2023/09/08 05:10:45;;;;;;;80.17;20.50;;;17.60;99.90;;;;;;4979592;28;20191;-80
2023/09/08 05:13:11;;;;;;;80.10;22.17;;;17.60;99.90;;;;;;4979737;28;20203;-80
2023/09/08 05:15:38;;;;;;;79.73;19.30;;;17.60;99.90;;;;;;4996880;28;20413;-80
2023/09/08 05:18:04;;;;;;;80.67;23.20;;;17.70;99.90;;;;;;4979681;28;20245;-80
2023/09/08 05:20:30;;;;;;;83.07;23.47;;;17.60;99.90;;;;;;5062257;23;20530;-85
2023/09/08 05:22:56;;;;;;;77.47;19.87;;;17.60;99.90;;;;;;4982429;28;20419;-84
2023/09/08 05:25:22;;;;;;;83.93;19.70;;;17.60;99.90;;;;;;4985907;28;20391;-86
2023/09/08 05:27:48;;;;;;;81.20;19.47;;;17.60;99.90;;;;;;4969539;28;20183;-85
2023/09/08 05:30:14;;;;;;;84.43;22.60;;;17.60;99.90;;;;;;4968553;28;20192;-85
2023/09/08 05:32:40;;;;;;;80.30;20.67;;;17.60;99.90;;;;;;4968722;28;20466;-85
2023/09/08 05:35:06;;;;;;;81.07;19.67;;;17.60;99.90;;;;;;4969186;28;20176;-85
2023/09/08 05:37:31;;;;;;;82.10;20.90;;;17.70;99.90;;;;;;4987238;28;20195;-85
2023/09/08 05:39:57;;;;;;;80.67;19.33;;;17.70;99.90;;;;;;4986432;28;20431;-85
2023/09/08 05:42:23;;;;;;;79.40;19.60;;;17.70;99.90;;;;;;4985723;28;20167;-85
2023/09/08 05:44:48;;;;;;;77.50;18.17;;;17.70;99.90;;;;;;4986568;28;20224;-85
2023/09/08 05:47:14;;;;;;;79.87;18.80;;;17.70;99.90;;;;;;4982498;28;20648;-84
2023/09/08 05:49:40;;;;;;;80.67;19.10;;;17.70;99.90;;;;;;4981262;28;20259;-84
2023/09/08 05:52:06;;;;;;;77.10;17.17;;;17.60;99.90;;;;;;4980076;28;20164;-84
2023/09/08 05:54:31;;;;;;;76.53;17.87;;;17.70;99.90;;;;;;4962742;28;20525;-84
2023/09/08 05:56:57;;;;;;;81.60;17.77;;;17.70;99.90;;;;;;4979894;28;20590;-84
2023/09/08 05:59:23;;;;;;;76.10;17.67;;;17.80;99.90;;;;;;4962516;28;20765;-84
2023/09/08 06:01:49;;;;;;;76.53;19.43;;;17.70;99.90;;;;;;4980330;28;20171;-84
2023/09/08 06:04:14;;;;;;;79.07;18.20;;;17.80;99.90;;;;;;4965746;28;20251;-83
2023/09/08 06:06:40;;;;;;;78.73;17.83;;;17.80;99.90;;;;;;4983434;28;20199;-84
2023/09/08 06:09:07;;;;;;;75.93;16.20;;;17.90;99.90;;;;;;4980317;28;20223;-88
2023/09/08 06:11:33;;;;;;;76.40;16.60;;;17.90;99.90;;;;;;4978183;28;20671;-87
2023/09/08 06:14:02;;;;;;;78.47;17.63;;;18.00;99.90;;;;;;4960762;28;20476;-88
2023/09/08 06:16:28;;;;;;;79.47;18.37;;;18.00;99.90;;;;;;4978376;28;20453;-87
2023/09/08 06:18:54;;;;;;;75.50;17.70;;;18.10;99.90;;;;;;4978316;28;20463;-88
2023/09/08 06:21:19;;;;;;;79.40;17.13;;;18.10;99.90;;;;;;4961661;28;20239;-82
2023/09/08 06:23:51;;;;;;;85.30;17.10;;;18.20;99.90;;;;;;4980357;28;20226;-81
2023/09/08 06:26:16;;;;;;;80.57;21.10;;;18.50;99.90;;;;;;4979964;28;20187;-82
2023/09/08 06:28:43;;;;;;;84.33;27.40;;;18.60;99.90;;;;;;4962771;28;20510;-81
2023/09/08 06:31:14;;;;;;;88.70;36.83;;;18.90;99.90;;;;;;4962892;28;20558;-81
2023/09/08 06:33:40;;;;;;;86.67;40.67;;;19.00;99.90;;;;;;4980237;28;20394;-81
2023/09/08 06:36:06;;;;;;;97.40;38.97;;;19.10;99.90;;;;;;4980152;28;20503;-81
2023/09/08 06:38:33;;;;;;;92.13;53.50;;;19.30;98.00;;;;;;4962014;28;20455;-82
2023/09/08 06:40:59;;;;;;;92.23;52.47;;;19.30;95.20;;;;;;4962395;28;20426;-81
2023/09/08 06:43:27;;;;;;;90.77;57.83;;;19.50;93.40;;;;;;4962503;28;20849;-82
2023/09/08 06:45:53;;;;;;;92.47;59.00;;;19.60;91.60;;;;;;4962768;28;20168;-81
2023/09/08 06:48:21;;;;;;;96.60;58.40;;;19.60;85.90;;;;;;4962946;28;20414;-81
2023/09/08 06:50:47;;;;;;;93.83;54.50;;;19.70;85.30;;;;;;4979519;28;20598;-80
2023/09/08 06:53:13;;;;;;;88.93;50.90;;;19.80;83.80;;;;;;4980108;28;20403;-82
2023/09/08 06:55:39;;;;;;;91.07;46.53;;;19.90;78.20;;;;;;4980160;28;20174;-81
2023/09/08 06:58:04;;;;;;;86.00;46.93;;;19.90;73.70;;;;;;4979775;28;20664;-81
2023/09/08 07:00:39;;;;;;;84.90;43.40;;;19.90;71.20;;;;;;4962341;28;20330;-82
2023/09/08 07:03:05;;;;;;;85.47;46.07;;;20.00;66.10;;;;;;4980445;28;20387;-81
2023/09/08 07:05:31;;;;;;;86.73;46.27;;;20.00;67.20;;;;;;4980853;28;20403;-82
2023/09/08 07:08:00;;;;;;;87.20;50.00;;;20.10;65.00;;;;;;4963432;28;20783;-82
2023/09/08 07:10:25;;;;;;;86.83;46.37;;;20.10;60.10;;;;;;4962243;28;20188;-81
2023/09/08 07:12:51;;;;;;;88.30;45.47;;;20.20;56.80;;;;;;4979298;28;20462;-81
2023/09/08 07:15:17;;;;;;;86.17;44.73;;;20.20;58.50;;;;;;4961351;28;20218;-82
2023/09/08 07:17:42;;;;;;;86.60;44.03;;;20.30;54.00;;;;;;4979120;28;20674;-80
2023/09/08 07:20:09;;;;;;;83.83;41.50;;;20.30;47.30;;;;;;4979260;28;20199;-81
2023/09/08 07:22:34;;;;;;;84.87;40.47;;;20.30;41.20;;;;;;4962366;28;20648;-80
2023/09/08 07:25:00;;;;;;;86.17;40.83;;;20.30;38.70;;;;;;4962332;28;20418;-82
2023/09/08 07:27:26;;;;;;;90.33;49.47;;;20.30;40.10;;;;;;4980035;28;20183;-82
2023/09/08 07:29:52;;;;;;;85.33;43.47;;;20.40;31.20;;;;;;4980032;28;20203;-81
2023/09/08 07:32:18;;;;;;;83.00;39.90;;;20.40;23.80;;;;;;4979324;28;20161;-81
2023/09/08 07:34:44;;;;;;;85.80;48.40;;;20.40;26.20;;;;;;4979131;28;20399;-81
2023/09/08 07:37:11;;;;;;;87.10;47.30;;;20.50;23.80;;;;;;4979654;28;20438;-80
2023/09/08 07:39:36;;;;;;;90.20;44.07;;;20.50;25.50;;;;;;4979173;28;20958;-81
2023/09/08 07:42:02;;;;;;;91.03;47.93;;;20.60;22.80;;;;;;4961946;28;20226;-81
2023/09/08 07:44:28;;;;;;;86.77;40.20;;;20.60;15.50;;;;;;4960454;28;20259;-79
2023/09/08 07:46:56;;;;;;;85.47;41.90;;;20.70;11.50;;;;;;4976996;28;20419;-81
2023/09/08 07:49:23;;;;;;;90.23;42.90;;;20.70;10.70;;;;;;4978457;28;20499;-81
2023/09/08 07:51:48;;;;;;;84.17;39.87;;;20.80;12.50;;;;;;4978746;28;20473;-80
2023/09/08 07:54:14;;;;;;;84.27;38.73;;;20.80;3.00;;;;;;4961307;28;20423;-81
2023/09/08 07:56:42;;;;;;;83.20;34.67;;;20.90;6.90;;;;;;4978817;28;20271;-81
2023/09/08 07:59:08;;;;;;;82.27;34.50;;;20.90;1.00;;;;;;4961052;28;20204;-81
2023/09/08 08:01:34;;;;;;;82.60;34.33;;;21.00;1.00;;;;;;4978523;28;20892;-79
2023/09/08 08:04:03;;;;;;;78.00;28.60;;;21.10;1.00;;;;;;4978448;28;20564;-80
2023/09/08 08:06:28;;;;;;;79.07;27.47;;;21.10;1.00;;;;;;4978063;28;20426;-81
2023/09/08 08:08:54;;;;;;;80.87;34.77;;;21.20;1.00;;;;;;4960837;28;20934;-80
2023/09/08 08:11:20;;;;;;;78.47;31.10;;;21.20;1.00;;;;;;4978197;28;20267;-81
2023/09/08 08:13:46;;;;;;;79.67;29.87;;;21.30;1.00;;;;;;4960903;28;20168;-81
2023/09/08 08:16:12;;;;;;;76.70;24.37;;;21.40;1.00;;;;;;4960661;28;20183;-80
2023/09/08 08:18:37;;;;;;;76.47;20.63;;;21.50;1.00;;;;;;4977648;28;20463;-80
2023/09/08 08:21:03;;;;;;;76.67;22.40;;;21.60;1.00;;;;;;4960904;28;20808;-80
2023/09/08 08:23:30;;;;;;;77.37;26.13;;;21.60;1.00;;;;;;4978187;28;20172;-81
2023/09/08 08:25:56;;;;;;;77.27;23.80;;;21.70;1.00;;;;;;4960245;28;20235;-80
2023/09/08 08:28:22;;;;;;;77.40;20.00;;;21.80;1.00;;;;;;4977839;28;20906;-80
2023/09/08 08:30:48;;;;;;;76.00;21.70;;;21.80;1.00;;;;;;4978251;28;20441;-81
2023/09/08 08:33:14;;;;;;;80.00;27.90;;;21.90;1.00;;;;;;4961118;28;20182;-81
2023/09/08 08:35:40;;;;;;;77.20;23.90;;;22.00;1.00;;;;;;4978084;28;20180;-80
2023/09/08 08:38:05;;;;;;;77.03;17.00;;;22.10;1.00;;;;;;4978489;28;20969;-81
2023/09/08 08:40:33;;;;;;;74.77;14.50;;;22.20;1.00;;;;;;4978718;28;20455;-82
2023/09/08 08:43:00;;;;;;;75.83;14.80;;;22.20;1.00;;;;;;4979342;28;20180;-82
2023/09/08 08:45:26;;;;;;;77.30;16.27;;;22.30;1.00;;;;;;4979717;28;20408;-82
2023/09/08 08:47:53;;;;;;;73.80;12.63;;;22.40;1.00;;;;;;4962018;28;20427;-82
2023/09/08 08:50:19;;;;;;;73.10;10.63;;;22.40;1.00;;;;;;4978799;28;20432;-81
2023/09/08 08:52:46;;;;;;;73.57;11.50;;;22.60;1.00;;;;;;4979014;28;20415;-81
2023/09/08 08:55:14;;;;;;;74.07;9.53;;;22.60;1.00;;;;;;4979599;28;20465;-81
2023/09/08 08:57:41;;;;;;;79.43;9.30;;;22.80;1.00;;;;;;4962086;28;20424;-81
2023/09/08 09:00:12;;;;;;;71.87;8.77;;;22.80;1.00;;;;;;4978831;28;20447;-81
2023/09/08 09:02:42;;;;;;;74.37;8.17;;;23.00;1.00;;;;;;4961970;28;20761;-81
2023/09/08 09:05:12;;;;;;;76.80;8.97;;;23.00;1.00;;;;;;4979361;28;20383;-81
2023/09/08 09:07:39;;;;;;;72.53;9.00;;;23.20;1.00;;;;;;4979165;28;20458;-80
2023/09/08 09:10:07;;;;;;;71.80;8.93;;;23.30;1.00;;;;;;4979077;28;20926;-82
2023/09/08 09:12:33;;;;;;;85.53;8.30;;;23.40;1.00;;;;;;4979551;28;20770;-81
2023/09/08 09:15:00;;;;;;;80.30;8.47;;;23.50;1.00;;;;;;4979900;28;20426;-81
2023/09/08 09:17:26;;;;;;;72.57;7.93;;;23.60;1.00;;;;;;4979069;28;20418;-81
2023/09/08 09:20:13;;;;;;;70.97;7.30;;;23.70;1.00;;;;;;4978798;28;20454;-81
2023/09/08 09:22:38;;;;;;;73.60;9.13;;;23.80;1.00;;;;;;4978395;28;20384;-82
2023/09/08 09:25:07;;;;;;;73.53;8.60;;;23.90;1.00;;;;;;4978411;28;20418;-81
2023/09/08 09:27:41;;;;;;;73.20;7.80;;;24.00;1.00;;;;;;4978708;28;20175;-82
2023/09/08 09:30:08;;;;;;;71.60;9.60;;;24.10;1.00;;;;;;4979645;28;20437;-82
2023/09/08 09:32:35;;;;;;;73.23;9.97;;;24.20;1.00;;;;;;4961867;28;20958;-82
2023/09/08 09:35:01;;;;;;;73.13;9.93;;;24.20;1.00;;;;;;4961526;28;20908;-81
2023/09/08 09:37:26;;;;;;;76.47;11.60;;;24.40;1.00;;;;;;4960723;28;20423;-82
2023/09/08 09:39:54;;;;;;;76.27;13.97;;;24.60;1.00;;;;;;4961412;28;20436;-81
2023/09/08 09:42:20;;;;;;;75.80;15.43;;;24.60;1.00;;;;;;4961263;28;20219;-82
2023/09/08 09:44:51;;;;;;;76.33;14.97;;;24.70;1.00;;;;;;4978498;28;20407;-81
2023/09/08 09:47:17;;;;;;;75.50;14.10;;;24.90;1.00;;;;;;4978262;28;20411;-82
2023/09/08 09:49:46;;;;;;;72.80;12.13;;;25.00;1.00;;;;;;4960860;28;20433;-82
2023/09/08 09:52:13;;;;;;;74.43;11.17;;;25.00;1.00;;;;;;4978429;28;20481;-81
2023/09/08 09:54:41;;;;;;;73.30;10.60;;;25.20;1.00;;;;;;4978348;28;20415;-81
2023/09/08 09:57:12;;;;;;;74.10;9.00;;;25.40;1.00;;;;;;4961650;28;20423;-82
2023/09/08 09:59:40;;;;;;;81.50;10.50;;;25.50;1.00;;;;;;4977839;28;20435;-82
2023/09/08 10:02:11;;;;;;;72.20;7.03;;;25.70;1.00;;;;;;4977938;28;20416;-81
2023/09/08 10:04:39;;;;;;;76.50;8.00;;;25.80;1.00;;;;;;4978084;28;20395;-82
2023/09/08 10:07:05;;;;;;;76.80;7.80;;;26.00;1.00;;;;;;4977859;28;20453;-81
2023/09/08 10:09:31;;;;;;;75.80;8.07;;;26.20;1.00;;;;;;4978109;28;20412;-81
2023/09/08 10:12:02;;;;;;;72.37;8.40;;;26.30;1.00;;;;;;4978113;28;20410;-81
2023/09/08 10:14:30;;;;;;;74.50;9.70;;;26.50;1.00;;;;;;4978379;28;20157;-81
2023/09/08 10:16:59;;;;;;;72.77;9.53;;;26.70;1.00;;;;;;4977746;28;20802;-81
2023/09/08 10:19:26;;;;;;;74.37;11.60;;;26.70;1.00;;;;;;4977675;28;20454;-81
2023/09/08 10:21:55;;;;;;;72.47;9.30;;;26.80;1.00;;;;;;4960358;28;20400;-81
2023/09/08 10:24:29;;;;;;;73.97;9.67;;;27.00;1.00;;;;;;4977584;28;20462;-81
2023/09/08 10:27:10;;;;;;;74.07;10.43;;;27.10;1.00;;;;;;4960593;28;20416;-81
2023/09/08 10:29:36;;;;;;;72.67;9.20;;;27.20;1.00;;;;;;4977899;28;20399;-81
2023/09/08 10:32:08;;;;;;;72.60;10.00;;;27.40;1.00;;;;;;4977637;28;20403;-82
2023/09/08 10:34:35;;;;;;;74.37;10.20;;;27.60;1.00;;;;;;4977672;28;20426;-81
2023/09/08 10:37:02;;;;;;;73.00;10.17;;;27.60;1.00;;;;;;4978047;28;20407;-81
2023/09/08 10:39:46;;;;;;;72.73;10.87;;;27.80;1.00;;;;;;4977370;28;20470;-82
2023/09/08 10:42:18;;;;;;;74.67;11.77;;;27.90;1.00;;;;;;4960404;28;20903;-81
2023/09/08 10:44:47;;;;;;;73.30;10.90;;;28.00;1.00;;;;;;4977627;28;20411;-81
2023/09/08 10:47:13;;;;;;;77.63;12.23;;;28.00;1.00;;;;;;4977606;28;20487;-81
2023/09/08 10:49:40;;;;;;;75.00;12.33;;;28.00;1.00;;;;;;4980440;28;20403;-82
2023/09/08 10:52:08;;;;;;;73.87;12.33;;;28.10;1.00;;;;;;4981302;28;20174;-81
2023/09/08 10:54:44;;;;;;;73.87;12.80;;;28.20;1.00;;;;;;4980649;28;20415;-82
2023/09/08 10:57:17;;;;;;;73.60;12.93;;;28.30;1.00;;;;;;4981611;28;20430;-81
2023/09/08 10:59:55;;;;;;;78.73;12.47;;;28.40;1.00;;;;;;4980681;28;20459;-82
2023/09/08 11:02:54;;;;;;;75.70;13.37;;;28.50;1.00;;;;;;4980861;28;20388;-81
2023/09/08 11:05:21;;;;;;;74.43;11.60;;;28.80;1.00;;;;;;4981046;28;20412;-82
2023/09/08 11:07:52;;;;;;;75.47;11.50;;;28.90;1.00;;;;;;4963329;28;20839;-81
2023/09/08 11:10:18;;;;;;;74.13;11.10;;;29.20;1.00;;;;;;4964316;28;20440;-81
2023/09/08 11:12:43;;;;;;;74.10;13.97;;;29.20;1.00;;;;;;4981253;28;20389;-82
2023/09/08 11:15:09;;;;;;;75.90;10.00;;;29.40;1.00;;;;;;4980978;28;20544;-82
2023/09/08 11:17:39;;;;;;;73.07;10.37;;;29.60;1.00;;;;;;4980300;28;20609;-82
2023/09/08 11:20:10;;;;;;;76.53;7.83;;;29.90;1.00;;;;;;5000858;23;20935;-79
2023/09/08 11:22:37;;;;;;;77.30;6.97;;;30.00;1.00;;;;;;4962881;28;20445;-79
2023/09/08 11:25:06;;;;;;;71.90;6.27;;;30.10;1.00;;;;;;4979755;28;20407;-78
2023/09/08 11:27:32;;;;;;;72.63;6.10;;;30.20;1.00;;;;;;4980533;28;20867;-79
2023/09/08 11:29:58;;;;;;;71.20;5.90;;;30.30;1.00;;;;;;4979945;28;20933;-78
2023/09/08 11:32:25;;;;;;;70.10;5.80;;;30.30;1.00;;;;;;4980064;28;20864;-79
2023/09/08 11:34:50;;;;;;;70.90;5.70;;;30.50;1.00;;;;;;4980106;28;20401;-79
2023/09/08 11:37:18;;;;;;;70.93;5.27;;;30.60;1.00;;;;;;5064815;23;20501;-79
2023/09/08 11:39:45;;;;;;;71.30;6.50;;;30.40;1.00;;;;;;5014899;28;20259;-79
2023/09/08 11:42:15;;;;;;;70.80;5.00;;;30.30;1.00;;;;;;4981792;28;20422;-79
2023/09/08 11:44:42;;;;;;;72.57;6.73;;;30.50;1.00;;;;;;4999157;28;20396;-79
2023/09/08 11:47:09;;;;;;;71.17;5.33;;;30.60;1.00;;;;;;4999037;28;20405;-79
2023/09/08 11:49:40;;;;;;;72.17;5.40;;;30.40;1.00;;;;;;4999213;28;20749;-79
2023/09/08 11:52:06;;;;;;;74.23;6.10;;;30.20;1.00;;;;;;4998671;28;20412;-79
2023/09/08 11:54:34;;;;;;;72.10;5.40;;;30.40;1.00;;;;;;4982507;28;20832;-79
2023/09/08 11:57:05;;;;;;;71.70;5.30;;;30.60;1.00;;;;;;4999151;28;20839;-79
2023/09/08 11:59:33;;;;;;;70.90;5.20;;;30.60;1.00;;;;;;4997611;28;20445;-79
2023/09/08 12:02:05;;;;;;;71.87;6.30;;;30.90;1.00;;;;;;4999319;28;20836;-79
2023/09/08 12:04:35;;;;;;;72.97;5.40;;;31.10;1.00;;;;;;4982459;28;20946;-79
2023/09/08 12:07:01;;;;;;;74.17;5.67;;;31.00;1.00;;;;;;4999219;28;20385;-79
2023/09/08 12:09:27;;;;;;;72.67;5.30;;;31.30;1.00;;;;;;4999000;28;20834;-79
2023/09/08 12:11:55;;;;;;;71.83;7.43;;;31.70;1.00;;;;;;4999861;28;20224;-79
2023/09/08 12:14:21;;;;;;;74.07;6.80;;;31.50;1.00;;;;;;4999348;28;20184;-79
2023/09/08 12:16:47;;;;;;;72.10;8.10;;;31.40;1.00;;;;;;4999550;28;20401;-79
2023/09/08 12:19:31;;;;;;;74.63;9.93;;;31.60;1.00;;;;;;5000127;28;20233;-79
2023/09/08 12:22:00;;;;;;;75.27;11.30;;;31.50;1.00;;;;;;5000068;28;20192;-79
2023/09/08 12:24:49;;;;;;;73.90;11.77;;;31.50;1.00;;;;;;5000351;28;20397;-79
2023/09/08 12:27:19;;;;;;;74.07;10.10;;;31.70;1.00;;;;;;5002230;28;20479;-80
2023/09/08 12:29:55;;;;;;;70.50;7.60;;;31.30;1.00;;;;;;5001133;28;20488;-79
2023/09/08 12:32:22;;;;;;;70.70;6.70;;;31.10;1.00;;;;;;4985199;28;20836;-79
2023/09/08 12:34:54;;;;;;;71.90;8.10;;;31.00;1.00;;;;;;5001612;28;20409;-80
2023/09/08 12:37:24;;;;;;;71.60;8.17;;;31.00;1.00;;;;;;4983832;28;20469;-79